This is the latest recevied weather packets stored in our database for station/object OK1VCF-6. If no packets are shown the sender has not sent any weather packets the latest 10 day(s).
| Time | Temp. | Humidity | Pressure | Rain* | Wind** | Luminosity | Snow |
|---|---|---|---|---|---|---|---|
| 1788687102 | 13.33° C | 72% | 1028 hPa | - | - | - | - |
| 1788687099 | 13.33° C | 72% | 1028 hPa | - | - | - | - |
| 1788681691 | 11.67° C | 82% | 1027.5 hPa | - | - | - | - |
| 1788679893 | 11.67° C | 83% | 1027 hPa | - | - | - | - |
| 1788678990 | 11.11° C | 82% | 1026.8 hPa | - | - | - | - |
| 1788670884 | 11.11° C | 86% | 1025.8 hPa | - | - | - | - |
| 1788668180 | 11.11° C | 88% | 1025.4 hPa | - | - | - | - |
| 1788667366 | 11.11° C | 87% | 1025.4 hPa | - | - | - | - |
| 1788667280 | 11.11° C | 87% | 1025.4 hPa | - | - | - | - |
| 1788666380 | 11.11° C | 86% | 1025.3 hPa | - | - | - | - |
| 1788666217 | 11.11° C | 87% | 1025.1 hPa | - | - | - | - |
| 1788665479 | 11.11° C | 87% | 1025.1 hPa | - | - | - | - |
| 1788664580 | 11.11° C | 87% | 1025 hPa | - | - | - | - |
| 1788663678 | 11.11° C | 86% | 1025 hPa | - | - | - | - |
| 1788662828 | 11.67° C | 87% | 1025 hPa | - | - | - | - |
| 1788662776 | 11.67° C | 87% | 1025 hPa | - | - | - | - |
| 1788661875 | 11.11° C | 87% | 1025.1 hPa | - | - | - | - |
| 1788657484 | 11.67° C | 88% | 1024.4 hPa | - | - | - | - |
| 1788657379 | 11.67° C | 88% | 1024.4 hPa | - | - | - | - |
| 1788654670 | 12.22° C | 88% | 1024.4 hPa | - | - | - | - |
| 1788652870 | 12.22° C | 88% | 1024.4 hPa | - | - | - | - |
| 1788649271 | 12.22° C | 88% | 1023.9 hPa | - | - | - | - |
| 1788629501 | 14.44° C | 74% | 1021.5 hPa | - | - | - | - |
| 1788629451 | 14.44° C | 74% | 1021.5 hPa | - | - | - | - |
| 1788624948 | 16.67° C | 68% | 1021 hPa | - | - | - | - |
* Rain since midnight (hover to see other rain measurements)
** Current wind speed in m/s (hover to see current wind gust speed)